createdAt,value
2022-11-12T00:00:13.192Z,14.02
2022-11-12T00:05:27.318Z,13.07
2022-11-12T00:10:29.881Z,13.07
2022-11-12T00:15:32.375Z,12.43
2022-11-12T00:20:36.793Z,11.13
2022-11-12T00:25:39.360Z,12.35
2022-11-12T00:30:42.209Z,10.82
2022-11-12T00:35:46.591Z,11.68
2022-11-12T00:40:49.496Z,12.73
2022-11-12T00:45:52.399Z,12.93
2022-11-12T00:51:01.782Z,13.63
2022-11-12T00:56:05.255Z,13.65
2022-11-12T01:01:09.324Z,12.52
2022-11-12T01:06:14.316Z,15.75
2022-11-12T01:11:23.253Z,14.25
2022-11-12T01:16:32.214Z,13.32
2022-11-12T01:21:38.980Z,12.27
2022-11-12T01:26:41.588Z,11.32
2022-11-12T01:31:44.494Z,11.07
2022-11-12T01:36:48.613Z,11.32
2022-11-12T01:41:51.206Z,10.45
2022-11-12T01:46:59.780Z,10.18
2022-11-12T01:52:09.616Z,9.13
2022-11-12T01:57:13.605Z,9.82
2022-11-12T02:02:16.243Z,9.45
2022-11-12T02:07:20.842Z,9.20
2022-11-12T02:12:41.253Z,8.50
2022-11-12T02:17:43.842Z,8.43
2022-11-12T02:22:48.226Z,8.30
2022-11-12T02:27:52.071Z,8.60
2022-11-12T02:32:54.621Z,8.10
2022-11-12T02:37:58.713Z,7.32
2022-11-12T02:43:01.229Z,8.32
2022-11-12T02:48:04.631Z,8.05
2022-11-12T02:53:08.743Z,7.28
2022-11-12T02:58:11.375Z,7.38
2022-11-12T03:03:15.081Z,7.70
2022-11-12T03:08:19.026Z,8.13
2022-11-12T03:13:22.142Z,7.75
2022-11-12T03:18:25.154Z,8.05
2022-11-12T03:23:29.568Z,7.23
2022-11-12T03:33:40.746Z,8.02
2022-11-12T03:38:44.903Z,8.35
2022-11-12T03:43:47.468Z,7.47
2022-11-12T03:48:50.030Z,8.45
2022-11-12T03:53:54.114Z,9.43
2022-11-12T03:58:56.726Z,8.27
2022-11-12T04:03:59.689Z,8.85
2022-11-12T04:09:03.727Z,8.38
2022-11-12T04:14:06.457Z,7.45
2022-11-12T04:19:28.979Z,7.57
2022-11-12T04:24:51.501Z,8.15
2022-11-12T04:30:12.676Z,8.40
2022-11-12T04:35:15.680Z,7.85
2022-11-12T04:40:38.363Z,7.78
2022-11-12T04:45:41.828Z,6.95
2022-11-12T04:50:45.833Z,8.40
2022-11-12T04:55:52.265Z,7.15
2022-11-12T05:00:54.807Z,7.43
2022-11-12T05:06:01.619Z,7.45
2022-11-12T05:11:11.547Z,7.25
2022-11-12T05:16:15.537Z,7.00
2022-11-12T05:21:42.134Z,5.80
2022-11-12T05:26:47.350Z,5.38
2022-11-12T05:31:49.978Z,6.40
2022-11-12T05:36:52.909Z,6.57
2022-11-12T05:42:13.738Z,6.95
2022-11-12T05:47:16.861Z,6.47
2022-11-12T05:52:19.518Z,5.65
2022-11-12T05:57:23.595Z,6.80
2022-11-12T06:02:26.299Z,7.18
2022-11-12T06:07:30.025Z,6.10
2022-11-12T06:12:33.904Z,6.75
2022-11-12T06:17:36.485Z,7.38
2022-11-12T06:22:39.125Z,6.03
2022-11-12T06:27:47.647Z,7.70
2022-11-12T06:32:51.774Z,6.95
2022-11-12T06:37:55.413Z,7.35
2022-11-12T06:43:02.982Z,7.38
2022-11-12T06:48:06.131Z,7.55
2022-11-12T06:53:09.486Z,6.20
2022-11-12T06:58:13.945Z,4.05
2022-11-12T07:03:17.715Z,7.65
2022-11-12T07:08:20.686Z,7.37
2022-11-12T07:13:25.099Z,8.38
2022-11-12T07:18:28.587Z,7.57
2022-11-12T07:23:32.534Z,7.07
2022-11-12T07:28:36.860Z,7.47
2022-11-12T07:33:39.954Z,6.05
2022-11-12T07:38:47.046Z,7.28
2022-11-12T07:43:52.025Z,6.47
2022-11-12T07:48:54.950Z,6.32
2022-11-12T07:54:00.021Z,6.63
2022-11-12T07:59:04.719Z,7.10
2022-11-12T08:04:09.396Z,6.65
2022-11-12T08:14:16.670Z,6.10
2022-11-12T08:19:19.479Z,6.13
2022-11-12T08:24:22.380Z,6.07
2022-11-12T08:29:28.381Z,5.65
2022-11-12T08:34:31.740Z,6.18
2022-11-12T08:39:34.470Z,5.30
2022-11-12T08:44:39.313Z,6.35
2022-11-12T08:49:47.614Z,6.70
2022-11-12T08:54:51.435Z,5.72
2022-11-12T08:59:56.374Z,6.15
2022-11-12T09:04:59.789Z,6.55
2022-11-12T09:10:02.912Z,7.27
2022-11-12T09:20:40.146Z,6.40
2022-11-12T09:25:46.538Z,6.57
2022-11-12T09:30:51.852Z,7.15
2022-11-12T09:35:56.299Z,7.05
2022-11-12T09:41:16.543Z,7.07
2022-11-12T09:46:29.524Z,6.78
2022-11-12T09:51:34.627Z,7.32
2022-11-12T09:56:43.177Z,6.75
2022-11-12T10:02:09.723Z,6.70
2022-11-12T10:07:19.030Z,7.10
2022-11-12T10:12:34.447Z,7.20
2022-11-12T10:17:47.525Z,6.55
2022-11-12T10:22:59.782Z,7.18
2022-11-12T10:28:06.715Z,11.63
2022-11-12T10:33:15.061Z,7.13
2022-11-12T10:38:21.359Z,8.05
2022-11-12T10:43:25.238Z,7.70
2022-11-12T10:48:34.709Z,7.20
2022-11-12T10:53:41.684Z,7.95
2022-11-12T10:58:44.745Z,8.10
2022-11-12T11:03:55.398Z,8.18
2022-11-12T11:09:10.511Z,8.60
2022-11-12T11:14:34.675Z,7.97
2022-11-12T11:19:42.697Z,8.20
2022-11-12T11:24:50.419Z,7.72
2022-11-12T11:30:03.392Z,8.27
2022-11-12T11:35:38.819Z,7.38
2022-11-12T11:41:07.131Z,7.25
2022-11-12T11:46:25.214Z,7.80
2022-11-12T11:51:35.674Z,7.82
2022-11-12T11:56:41.575Z,8.07
2022-11-12T12:01:54.203Z,7.32
2022-11-12T12:07:06.764Z,8.23
2022-11-12T12:12:16.535Z,7.85
2022-11-12T12:17:32.872Z,6.82
2022-11-12T12:22:38.386Z,6.72
2022-11-12T12:27:47.221Z,6.93
2022-11-12T12:32:55.781Z,6.68
2022-11-12T12:38:16.156Z,5.97
2022-11-12T12:43:21.082Z,7.25
2022-11-12T12:48:28.995Z,7.78
2022-11-12T12:53:47.488Z,7.33
2022-11-12T12:58:51.296Z,8.02
2022-11-12T13:09:02.274Z,6.20
2022-11-12T13:14:41.889Z,6.72
2022-11-12T13:19:47.085Z,7.47
2022-11-12T13:25:25.308Z,6.78
2022-11-12T13:30:47.363Z,6.07
2022-11-12T13:35:51.070Z,5.63
2022-11-12T13:41:05.734Z,6.20
2022-11-12T13:46:26.195Z,5.45
2022-11-12T13:51:37.305Z,6.43
2022-11-12T13:56:41.999Z,5.78
2022-11-12T14:01:45.004Z,5.95
2022-11-12T14:06:48.931Z,7.13
2022-11-12T14:17:09.057Z,5.93
2022-11-12T14:22:14.758Z,6.28
2022-11-12T14:27:25.577Z,6.13
2022-11-12T14:32:36.330Z,6.88
2022-11-12T14:37:43.480Z,6.82
2022-11-12T14:42:47.052Z,7.50
2022-11-12T14:47:52.094Z,7.70
2022-11-12T14:52:56.777Z,7.38
2022-11-12T14:58:04.818Z,7.90
2022-11-12T15:03:12.246Z,7.47
2022-11-12T15:08:28.283Z,6.45
2022-11-12T15:13:38.773Z,5.90
2022-11-12T15:18:43.030Z,6.35
2022-11-12T15:23:51.336Z,6.90
2022-11-12T15:29:00.365Z,5.82
2022-11-12T15:34:17.813Z,8.48
2022-11-12T15:39:22.259Z,7.53
2022-11-12T15:44:25.264Z,7.90
2022-11-12T15:49:27.936Z,7.65
2022-11-12T15:54:34.631Z,7.60
2022-11-12T15:59:41.492Z,7.97
2022-11-12T16:04:44.498Z,8.30
2022-11-12T16:09:48.740Z,8.20
2022-11-12T16:14:51.364Z,7.55
2022-11-12T16:19:54.010Z,8.82
2022-11-12T16:24:58.065Z,9.48
2022-11-12T16:35:03.048Z,7.97
2022-11-12T16:40:08.276Z,7.45
2022-11-12T16:45:10.976Z,7.63
2022-11-12T16:50:14.583Z,6.97
2022-11-12T16:55:18.680Z,7.75
2022-11-12T17:00:21.535Z,8.30
2022-11-12T17:05:25.607Z,6.78
2022-11-12T17:10:29.744Z,7.45
2022-11-12T17:20:35.051Z,7.85
2022-11-12T17:25:39.132Z,7.45
2022-11-12T17:30:41.644Z,7.57
2022-11-12T17:35:44.149Z,7.85
2022-11-12T17:40:48.083Z,7.25
2022-11-12T17:45:50.882Z,7.10
2022-11-12T17:50:53.964Z,6.97
2022-11-12T17:55:58.951Z,7.35
2022-11-12T18:01:05.857Z,10.68
2022-11-12T18:06:12.228Z,5.85
2022-11-12T18:11:16.314Z,6.10
2022-11-12T18:16:20.268Z,6.38
2022-11-12T18:21:23.473Z,6.32
2022-11-12T18:26:28.052Z,5.15
2022-11-12T18:36:33.063Z,6.65
2022-11-12T18:41:37.064Z,6.47
2022-11-12T18:46:39.684Z,8.23
2022-11-12T18:51:44.027Z,8.10
2022-11-12T18:56:49.320Z,6.93
2022-11-12T19:01:52.035Z,6.72
2022-11-12T19:06:54.585Z,7.28
2022-11-12T19:11:58.610Z,7.55
2022-11-12T19:17:01.127Z,7.60
2022-11-12T19:22:13.757Z,8.90
2022-11-12T19:27:17.664Z,8.20
2022-11-12T19:32:20.249Z,8.05
2022-11-12T19:37:33.620Z,9.20
2022-11-12T19:42:38.447Z,7.93
2022-11-12T19:47:41.450Z,9.15
2022-11-12T19:52:44.047Z,7.78
2022-11-12T19:57:48.029Z,8.63
2022-11-12T20:02:50.724Z,7.63
2022-11-12T20:07:53.352Z,8.82
2022-11-12T20:12:57.396Z,8.77
2022-11-12T20:18:00.141Z,8.05
2022-11-12T20:23:02.750Z,7.90
2022-11-12T20:28:07.548Z,8.82
2022-11-12T20:33:10.312Z,10.68
2022-11-12T20:38:12.916Z,9.30
2022-11-12T20:43:17.847Z,8.82
2022-11-12T20:48:21.129Z,9.07
2022-11-12T20:53:23.675Z,10.10
2022-11-12T20:58:29.820Z,10.00
2022-11-12T21:03:32.912Z,9.70
2022-11-12T21:08:36.167Z,10.13
2022-11-12T21:13:40.071Z,9.07
2022-11-12T21:18:43.800Z,8.18
2022-11-12T21:23:46.418Z,7.10
2022-11-12T21:28:51.384Z,7.60
2022-11-12T21:33:54.920Z,7.05
2022-11-12T21:38:57.548Z,6.20
2022-11-12T21:44:01.647Z,4.72
2022-11-12T21:49:04.515Z,7.90
2022-11-12T21:54:08.078Z,6.90
2022-11-12T21:59:12.085Z,7.22
2022-11-12T22:04:18.358Z,7.50
2022-11-12T22:09:21.167Z,7.80
2022-11-12T22:14:25.048Z,7.22
2022-11-12T22:19:27.606Z,8.00
2022-11-12T22:24:30.663Z,7.68
2022-11-12T22:29:34.641Z,8.10
2022-11-12T22:34:37.157Z,6.78
2022-11-12T22:39:39.724Z,7.50
2022-11-12T22:44:44.878Z,7.03
2022-11-12T22:49:48.525Z,8.30
2022-11-12T22:54:51.019Z,6.63
2022-11-12T22:59:55.298Z,4.38
2022-11-12T23:04:57.917Z,6.78
2022-11-12T23:10:00.486Z,7.25
2022-11-12T23:15:04.680Z,9.10
2022-11-12T23:25:10.438Z,7.90
2022-11-12T23:30:14.858Z,8.23
2022-11-12T23:40:31.143Z,6.97
2022-11-12T23:45:45.329Z,6.43
2022-11-12T23:50:48.688Z,7.07
2022-11-12T23:55:51.367Z,6.50
